Alpha, Idaho
Current Conditions -  °F | °C
As of 4:51 PM on Monday 22 Dec 2014 (Local Time) from KMYL Reporting Station
Clear Clear  
Wind Chill: 25°   Ceiling: Unl
Heat Index: 31°   Visibility: 10mi
Dew Point: 25°   Wind: 6mph
Humidity: 79%   Direction: 310°NW
Pressure: 30.18"   Gusts: NA
Location:  44.4236°N, 115.8°W
Report Text: KMYL 222351Z AUTO 31005KT 10SM CLR M01/M04 A3018 RMK AO2 SLP245 60000 T10061039 10011 21006 53017
Loading
Personal Weather Stations






























Interactive Weather Map New forecast layout! Learn more

10-Day Weather Forecast

Advertisements
Track Severe Weather on mobile